Time;durP1;ratioP1;P1;durP2;ratioP2;P2;SDS_P1;SDS_P2;PMS_P1;PMS_P2;Temp;Humidity;BMP_temperature;BMP_pressure;BME280_temperature;BME280_humidity;BME280_pressure;Samples;Min_cycle;Max_cycle;Signal;HPM_P1;HPM_P2
2024/01/26 00:02:04;;;;;;;30.17;16.77;;;;;;;9.43;100.00;102061.53;4958023;28;20187;-70
2024/01/26 00:04:31;;;;;;;26.23;16.67;;;;;;;9.43;100.00;102057.03;4958566;28;20269;-70
2024/01/26 00:06:57;;;;;;;32.83;16.43;;;;;;;9.39;100.00;102054.69;4957875;28;20293;-70
2024/01/26 00:09:24;;;;;;;22.73;17.13;;;;;;;9.42;100.00;102047.31;4957909;28;20194;-70
2024/01/26 00:11:51;;;;;;;24.30;15.93;;;;;;;9.46;100.00;102051.47;4957782;28;20213;-70
2024/01/26 00:14:17;;;;;;;24.77;15.83;;;;;;;9.51;100.00;102059.16;4958082;28;20725;-70
2024/01/26 00:16:44;;;;;;;28.13;16.47;;;;;;;9.49;100.00;102061.09;4957708;28;20214;-70
2024/01/26 00:19:10;;;;;;;22.43;17.13;;;;;;;9.48;100.00;102060.22;4957997;29;20195;-70
2024/01/26 00:21:38;;;;;;;31.33;17.00;;;;;;;9.45;100.00;102054.28;4957905;28;20670;-70
2024/01/26 00:24:05;;;;;;;24.60;15.87;;;;;;;9.48;100.00;102049.56;4957736;29;20198;-70
2024/01/26 00:26:31;;;;;;;33.53;17.47;;;;;;;9.51;100.00;102048.47;4957544;28;20183;-71
2024/01/26 00:28:58;;;;;;;32.80;18.70;;;;;;;9.54;100.00;102048.25;4957795;29;20245;-70
2024/01/26 00:31:24;;;;;;;24.83;17.47;;;;;;;9.52;100.00;102040.34;4957724;28;20583;-70
2024/01/26 00:33:51;;;;;;;31.03;18.97;;;;;;;9.60;100.00;102039.78;4956325;29;20604;-70
2024/01/26 00:36:17;;;;;;;30.30;18.00;;;;;;;9.73;100.00;102035.25;4957744;28;20214;-70
2024/01/26 00:38:44;;;;;;;37.30;19.57;;;;;;;9.66;100.00;102034.00;4957814;28;20211;-70
2024/01/26 00:41:11;;;;;;;30.77;19.33;;;;;;;9.67;100.00;102035.72;4957847;29;20307;-70
2024/01/26 00:43:37;;;;;;;35.77;19.17;;;;;;;9.71;100.00;102039.00;4957790;28;20199;-70
2024/01/26 00:46:03;;;;;;;31.00;18.00;;;;;;;9.72;100.00;102036.19;4957514;28;20187;-70
2024/01/26 00:48:30;;;;;;;38.70;20.47;;;;;;;9.76;100.00;102027.00;4957175;28;20210;-70
2024/01/26 00:50:57;;;;;;;42.33;20.40;;;;;;;9.81;100.00;102027.50;4957050;29;20272;-70
2024/01/26 00:53:23;;;;;;;39.07;19.77;;;;;;;9.76;100.00;102028.84;4957136;28;20263;-70
2024/01/26 00:55:50;;;;;;;43.00;19.50;;;;;;;9.74;100.00;102039.63;4957090;28;20190;-70
2024/01/26 00:58:16;;;;;;;38.97;20.60;;;;;;;9.75;100.00;102029.78;4956929;28;20206;-70
2024/01/26 01:00:43;;;;;;;40.17;19.87;;;;;;;9.81;100.00;102024.84;4956975;29;20195;-70
2024/01/26 01:03:09;;;;;;;39.83;19.07;;;;;;;9.83;100.00;102028.25;4957204;28;20539;-70
2024/01/26 01:05:36;;;;;;;35.33;18.73;;;;;;;9.86;100.00;102017.34;4956917;28;20194;-70
2024/01/26 01:08:04;;;;;;;31.97;18.87;;;;;;;9.81;100.00;102019.50;4956230;28;20203;-70
2024/01/26 01:10:31;;;;;;;29.80;18.40;;;;;;;9.80;100.00;102019.63;4956771;29;20741;-70
2024/01/26 01:12:57;;;;;;;34.97;19.97;;;;;;;9.86;100.00;102011.13;4956681;29;20210;-70
2024/01/26 01:15:23;;;;;;;35.10;20.00;;;;;;;9.84;100.00;102011.28;4956720;28;20662;-70
2024/01/26 01:17:50;;;;;;;35.87;19.33;;;;;;;9.82;100.00;102012.34;4956565;28;20214;-70
2024/01/26 01:20:17;;;;;;;34.43;20.33;;;;;;;9.85;100.00;102006.75;4956847;29;20186;-70
2024/01/26 01:22:47;;;;;;;37.27;21.93;;;;;;;9.84;100.00;102000.59;4956463;28;20190;-70
2024/01/26 01:25:14;;;;;;;44.27;20.53;;;;;;;9.84;100.00;102013.94;4956811;28;20175;-70
2024/01/26 01:27:40;;;;;;;37.63;20.30;;;;;;;9.80;100.00;102016.97;4956418;28;20207;-70
2024/01/26 01:30:09;;;;;;;46.17;21.17;;;;;;;9.81;100.00;102016.81;4956381;29;20245;-70
2024/01/26 01:32:35;;;;;;;42.30;20.60;;;;;;;9.81;100.00;102015.97;4956578;28;20616;-70
2024/01/26 01:35:02;;;;;;;42.47;21.57;;;;;;;9.82;100.00;102005.19;4956345;28;20241;-70
2024/01/26 01:37:29;;;;;;;39.57;21.03;;;;;;;9.81;100.00;102005.28;4956228;28;20222;-70
2024/01/26 01:39:55;;;;;;;39.73;22.30;;;;;;;9.86;100.00;102008.47;4956193;29;20663;-70
2024/01/26 01:42:22;;;;;;;37.07;21.80;;;;;;;9.92;100.00;102006.19;4956497;29;20193;-70
2024/01/26 01:44:48;;;;;;;40.90;21.40;;;;;;;9.78;100.00;102016.19;4956152;28;20190;-70
2024/01/26 01:47:15;;;;;;;48.37;23.33;;;;;;;9.86;100.00;102008.47;4956562;28;20711;-70
2024/01/26 01:49:43;;;;;;;36.93;21.60;;;;;;;9.84;100.00;102013.09;4956337;29;20285;-70
2024/01/26 01:52:14;;;;;;;38.03;21.27;;;;;;;9.80;100.00;102003.59;4955905;28;20717;-70
2024/01/26 01:54:40;;;;;;;40.90;22.03;;;;;;;9.88;100.00;102003.88;4956238;29;20235;-70
2024/01/26 01:57:09;;;;;;;39.07;21.30;;;;;;;9.88;100.00;102003.88;4956203;28;20530;-70
2024/01/26 01:59:37;;;;;;;39.13;21.57;;;;;;;9.86;100.00;102003.13;4955865;29;20718;-70
2024/01/26 02:02:04;;;;;;;38.57;21.50;;;;;;;9.84;100.00;101997.06;4955854;29;20179;-70
2024/01/26 02:04:31;;;;;;;42.17;22.23;;;;;;;9.93;100.00;102001.72;4956038;29;20210;-70
2024/01/26 02:07:00;;;;;;;42.63;22.93;;;;;;;9.95;100.00;102000.63;4956153;28;20217;-70
2024/01/26 02:09:27;;;;;;;44.47;22.03;;;;;;;9.95;100.00;101995.28;4955749;29;20261;-70
2024/01/26 02:11:55;;;;;;;43.23;22.37;;;;;;;9.93;100.00;101983.84;4955811;29;20761;-70
2024/01/26 02:14:23;;;;;;;35.67;21.23;;;;;;;9.89;100.00;101976.16;4955938;29;20171;-70
2024/01/26 02:17:01;;;;;;;36.57;20.97;;;;;;;9.94;100.00;101980.22;4955782;28;20210;-70
2024/01/26 02:19:29;;;;;;;49.63;23.33;;;;;;;9.92;100.00;101983.97;4954984;28;20175;-70
2024/01/26 02:21:56;;;;;;;40.63;23.23;;;;;;;9.89;100.00;101970.81;4955510;29;20187;-70
2024/01/26 02:24:22;;;;;;;37.50;22.27;;;;;;;9.87;100.00;101972.78;4955499;28;20194;-70
2024/01/26 02:26:49;;;;;;;39.20;22.50;;;;;;;9.90;100.00;101975.22;4955455;28;20624;-70
2024/01/26 02:29:15;;;;;;;45.00;22.77;;;;;;;9.93;100.00;101975.81;4955917;29;20653;-70
2024/01/26 02:31:42;;;;;;;40.50;21.97;;;;;;;9.93;100.00;101978.50;4955268;29;20253;-70
2024/01/26 02:34:11;;;;;;;43.60;21.10;;;;;;;9.85;100.00;101972.88;4955943;28;20262;-70
2024/01/26 02:36:38;;;;;;;39.13;20.67;;;;;;;9.85;100.00;101978.22;4955261;28;20190;-70
2024/01/26 02:39:05;;;;;;;35.07;20.77;;;;;;;9.91;100.00;101977.78;4955266;29;20202;-70
2024/01/26 02:41:33;;;;;;;30.70;20.90;;;;;;;9.92;100.00;101975.97;4955315;28;20206;-70
2024/01/26 02:44:01;;;;;;;37.63;21.63;;;;;;;10.04;100.00;101980.38;4955252;28;20731;-70
2024/01/26 02:46:28;;;;;;;39.07;21.80;;;;;;;9.97;100.00;101976.47;4955434;28;20237;-70
2024/01/26 02:48:55;;;;;;;33.73;20.43;;;;;;;10.06;100.00;101971.25;4955213;29;20241;-70
2024/01/26 02:51:21;;;;;;;43.13;20.53;;;;;;;10.09;100.00;101963.03;4955093;28;20662;-70
2024/01/26 02:53:48;;;;;;;32.73;20.13;;;;;;;10.01;100.00;101948.53;4955737;29;20170;-70
2024/01/26 02:56:14;;;;;;;40.60;21.43;;;;;;;10.01;100.00;101959.22;4955654;29;20194;-70
2024/01/26 02:58:41;;;;;;;31.33;21.03;;;;;;;10.01;100.00;101957.38;4955132;28;20584;-70
2024/01/26 03:01:07;;;;;;;36.83;21.57;;;;;;;10.05;100.00;101948.19;4955017;29;20195;-70
2024/01/26 03:03:34;;;;;;;40.53;21.77;;;;;;;9.95;100.00;101949.00;4955331;28;20195;-70
2024/01/26 03:06:00;;;;;;;36.30;21.47;;;;;;;10.06;100.00;101941.84;4955033;29;20273;-70
2024/01/26 03:08:27;;;;;;;37.80;20.73;;;;;;;10.04;100.00;101946.47;4955036;28;20210;-70
2024/01/26 03:10:53;;;;;;;40.17;20.27;;;;;;;10.12;100.00;101947.69;4955524;29;20218;-70
2024/01/26 03:13:20;;;;;;;33.80;20.77;;;;;;;10.06;100.00;101965.03;4955466;28;20206;-70
2024/01/26 03:15:51;;;;;;;36.03;20.90;;;;;;;10.01;100.00;101957.38;4955514;28;20179;-70
2024/01/26 03:18:18;;;;;;;29.77;19.63;;;;;;;10.01;100.00;101960.06;4955003;28;20211;-70
2024/01/26 03:20:45;;;;;;;40.47;20.60;;;;;;;10.02;100.00;101942.22;4954869;29;20187;-70
2024/01/26 03:23:12;;;;;;;29.07;20.33;;;;;;;9.99;100.00;101942.47;4954788;28;20222;-70
2024/01/26 03:25:38;;;;;;;31.00;20.57;;;;;;;10.06;100.00;101941.84;4955452;29;20611;-70
2024/01/26 03:28:06;;;;;;;34.43;20.67;;;;;;;10.04;100.00;101938.47;4954778;28;20286;-70
2024/01/26 03:30:34;;;;;;;28.50;20.07;;;;;;;10.01;100.00;101933.34;4955524;28;20201;-70
2024/01/26 03:33:00;;;;;;;37.07;20.00;;;;;;;9.95;100.00;101927.63;4958469;28;20701;-70
2024/01/26 03:35:27;;;;;;;33.57;21.93;;;;;;;9.93;100.00;101919.72;4959039;29;20191;-70
2024/01/26 03:37:54;;;;;;;28.27;19.47;;;;;;;9.92;100.00;101914.53;4958994;28;20645;-70
2024/01/26 03:40:22;;;;;;;25.23;19.10;;;;;;;9.89;100.00;101912.91;4958424;29;20277;-70
2024/01/26 03:42:48;;;;;;;30.93;19.07;;;;;;;9.91;100.00;101902.13;4958391;28;20249;-70
2024/01/26 03:45:15;;;;;;;24.30;18.27;;;;;;;9.88;100.00;101897.03;4958292;28;20187;-70
2024/01/26 03:47:41;;;;;;;21.50;16.70;;;;;;;9.90;100.00;101909.28;4958242;28;20694;-70
2024/01/26 03:50:08;;;;;;;26.27;16.57;;;;;;;9.90;100.00;101905.75;4958780;29;20191;-70
2024/01/26 03:52:35;;;;;;;18.53;15.63;;;;;;;9.92;100.00;101906.50;4958158;28;20218;-70
2024/01/26 03:55:01;;;;;;;22.53;15.27;;;;;;;9.88;100.00;101905.03;4958172;28;20239;-70
2024/01/26 03:57:28;;;;;;;20.60;15.50;;;;;;;9.78;100.00;101910.22;4958097;28;20253;-70
2024/01/26 03:59:54;;;;;;;19.03;14.17;;;;;;;9.79;100.00;101903.94;4958022;29;20205;-70
2024/01/26 04:02:21;;;;;;;20.83;14.53;;;;;;;9.83;100.00;101908.06;4958042;28;20214;-70
2024/01/26 04:04:47;;;;;;;15.03;12.43;;;;;;;9.74;100.00;101906.09;4958023;28;20198;-70
2024/01/26 04:07:14;;;;;;;14.47;12.20;;;;;;;9.69;100.00;101884.22;4958427;28;20219;-70
2024/01/26 04:09:40;;;;;;;17.77;13.03;;;;;;;9.66;100.00;101889.81;4958168;29;20195;-70
2024/01/26 04:12:07;;;;;;;13.33;11.93;;;;;;;9.74;100.00;101871.38;4958360;28;20198;-70
2024/01/26 04:14:34;;;;;;;14.13;12.60;;;;;;;9.69;100.00;101859.34;4958119;28;20191;-70
2024/01/26 04:17:01;;;;;;;14.23;11.53;;;;;;;9.75;100.00;101856.22;4957713;28;20638;-70
2024/01/26 04:19:27;;;;;;;11.87;10.67;;;;;;;9.67;100.00;101846.13;4957651;29;20191;-70
2024/01/26 04:21:54;;;;;;;11.57;10.47;;;;;;;9.66;100.00;101835.56;4958203;28;20239;-70
2024/01/26 04:24:20;;;;;;;10.77;9.90;;;;;;;9.70;100.00;101834.34;4957546;29;20218;-70
2024/01/26 04:26:46;;;;;;;16.63;10.43;;;;;;;9.64;100.00;101833.00;4957802;28;20258;-71
2024/01/26 04:29:13;;;;;;;11.87;10.83;;;;;;;9.70;100.00;101835.22;4957788;29;20195;-70
2024/01/26 04:31:43;;;;;;;10.00;9.00;;;;;;;9.72;100.00;101824.41;4957403;28;20675;-70
2024/01/26 04:34:10;;;;;;;8.97;8.33;;;;;;;9.72;100.00;101816.41;4957432;28;20724;-70
2024/01/26 04:36:36;;;;;;;10.80;9.80;;;;;;;9.70;100.00;101815.66;4957272;28;20199;-71
2024/01/26 04:39:03;;;;;;;11.63;10.83;;;;;;;9.71;100.00;101812.03;4957435;28;20187;-70
2024/01/26 04:41:29;;;;;;;9.73;9.23;;;;;;;9.72;100.00;101803.06;4956896;28;20190;-70
2024/01/26 04:43:56;;;;;;;12.87;11.70;;;;;;;9.76;100.00;101791.97;4957342;28;20186;-70
2024/01/26 04:46:22;;;;;;;11.93;10.93;;;;;;;9.78;100.00;101787.38;4957265;28;20250;-70
2024/01/26 04:48:49;;;;;;;9.77;9.03;;;;;;;9.89;100.00;101786.53;4957700;28;20210;-70
2024/01/26 04:51:16;;;;;;;9.77;9.17;;;;;;;9.86;100.00;101790.31;4957197;28;20194;-70
2024/01/26 04:53:42;;;;;;;10.13;9.43;;;;;;;9.83;100.00;101793.22;4957064;28;20331;-70
2024/01/26 04:56:11;;;;;;;8.10;7.50;;;;;;;9.81;100.00;101799.63;4957097;28;20199;-70
2024/01/26 04:58:38;;;;;;;10.13;7.43;;;;;;;9.92;99.48;101789.84;4956998;28;20210;-70
2024/01/26 05:01:04;;;;;;;7.20;6.77;;;;;;;9.87;99.24;101780.47;4957040;28;20191;-70
2024/01/26 05:03:31;;;;;;;6.50;6.20;;;;;;;9.95;98.75;101780.72;4956977;28;20187;-70
2024/01/26 05:05:57;;;;;;;8.93;6.10;;;;;;;10.05;98.35;101777.19;4957182;28;20292;-70
2024/01/26 05:08:24;;;;;;;6.67;6.30;;;;;;;10.13;97.57;101773.91;4956821;28;20207;-70
2024/01/26 05:10:51;;;;;;;6.93;6.47;;;;;;;10.08;97.79;101760.06;4956828;28;20195;-70
2024/01/26 05:13:17;;;;;;;6.67;6.27;;;;;;;10.12;97.18;101776.69;4956971;28;20210;-70
2024/01/26 05:15:44;;;;;;;6.80;6.50;;;;;;;10.07;97.02;101769.03;4956707;28;20190;-70
2024/01/26 05:18:10;;;;;;;7.30;6.87;;;;;;;10.06;97.24;101770.00;4956627;28;20214;-70
2024/01/26 05:20:37;;;;;;;5.93;5.53;;;;;;;10.05;97.27;101769.19;4957158;28;20198;-70
2024/01/26 05:23:04;;;;;;;6.13;5.80;;;;;;;10.12;96.99;101764.19;4956879;28;20267;-70
2024/01/26 05:25:30;;;;;;;6.53;6.23;;;;;;;10.17;96.06;101769.19;4957114;28;20174;-70
2024/01/26 05:27:57;;;;;;;5.40;5.20;;;;;;;10.21;95.96;101768.81;4956421;28;20210;-70
2024/01/26 05:30:24;;;;;;;4.97;4.87;;;;;;;10.23;95.77;101774.03;4956391;28;20245;-70
2024/01/26 05:32:51;;;;;;;5.57;5.30;;;;;;;10.24;95.46;101765.03;4956327;28;20218;-70
2024/01/26 05:35:18;;;;;;;5.43;5.03;;;;;;;10.33;94.75;101759.81;4956345;28;20195;-70
2024/01/26 05:37:44;;;;;;;5.37;5.30;;;;;;;10.27;94.93;101759.47;4956224;28;20261;-70
2024/01/26 05:40:11;;;;;;;5.33;5.13;;;;;;;10.33;94.74;101757.13;4956229;28;20203;-70
2024/01/26 05:42:37;;;;;;;5.47;5.37;;;;;;;10.34;94.77;101756.16;4956734;28;20615;-70
2024/01/26 05:45:05;;;;;;;4.70;4.50;;;;;;;10.29;94.41;101734.31;4956448;28;20190;-70
2024/01/26 05:47:31;;;;;;;5.30;5.13;;;;;;;10.28;94.34;101734.41;4956036;28;20210;-70
2024/01/26 05:49:58;;;;;;;4.17;4.07;;;;;;;10.29;94.18;101712.06;4956079;28;20191;-70
2024/01/26 05:52:24;;;;;;;5.63;5.32;;;;;;;10.24;94.29;101706.25;4954098;28;20488;-70
2024/01/26 05:54:51;;;;;;;5.03;4.07;;;;;;;10.30;94.17;101711.97;4955864;28;20274;-70
2024/01/26 05:57:17;;;;;;;4.40;4.30;;;;;;;10.33;94.05;101709.03;4955892;28;20211;-70
2024/01/26 05:59:44;;;;;;;4.07;3.87;;;;;;;10.33;93.41;101721.53;4955914;28;20200;-70
2024/01/26 06:02:11;;;;;;;4.27;4.27;;;;;;;10.29;93.82;101704.91;4956155;28;20186;-70
2024/01/26 06:04:38;;;;;;;12.70;4.30;;;;;;;10.28;93.81;101710.38;4956110;28;20191;-70
2024/01/26 06:07:04;;;;;;;4.00;3.90;;;;;;;10.28;93.71;101713.03;4955930;28;20210;-70
2024/01/26 06:09:31;;;;;;;3.33;3.33;;;;;;;10.29;93.73;101701.38;4955741;28;20198;-70
2024/01/26 06:11:58;;;;;;;4.27;3.80;;;;;;;10.26;93.79;101702.50;4955763;28;20562;-70
2024/01/26 06:14:25;;;;;;;3.37;3.37;;;;;;;10.26;93.58;101678.44;4955940;28;20670;-70
2024/01/26 06:16:51;;;;;;;5.70;4.20;;;;;;;10.34;93.70;101685.81;4955836;28;20653;-70
2024/01/26 06:19:18;;;;;;;4.50;4.10;;;;;;;10.36;93.25;101681.19;4955579;28;20218;-70
2024/01/26 06:21:45;;;;;;;3.53;3.43;;;;;;;10.31;93.21;101673.53;4956031;28;20659;-70
2024/01/26 06:24:11;;;;;;;3.90;3.80;;;;;;;10.40;93.01;101686.16;4955452;28;20598;-70
2024/01/26 06:26:38;;;;;;;4.70;3.70;;;;;;;10.38;92.61;101673.91;4955422;28;20202;-71
2024/01/26 06:29:04;;;;;;;3.57;3.37;;;;;;;10.32;93.34;101666.38;4955531;28;20246;-70
2024/01/26 06:31:31;;;;;;;3.57;3.40;;;;;;;10.39;92.90;101680.94;4955963;28;20198;-70
2024/01/26 06:33:57;;;;;;;3.87;3.77;;;;;;;10.44;92.53;101682.25;4955312;28;20206;-70
2024/01/26 06:36:24;;;;;;;4.43;4.13;;;;;;;10.39;92.67;101675.59;4955910;28;20642;-70
2024/01/26 06:38:50;;;;;;;4.13;3.90;;;;;;;10.46;92.46;101674.09;4955633;28;20179;-70
2024/01/26 06:41:17;;;;;;;3.70;3.50;;;;;;;10.43;92.32;101669.03;4955574;28;20194;-70
2024/01/26 06:43:50;;;;;;;3.50;3.40;;;;;;;10.41;92.07;101670.97;4955473;28;20214;-70
2024/01/26 06:46:24;;;;;;;3.67;3.60;;;;;;;10.40;92.00;101664.75;4955536;28;20175;-70
2024/01/26 06:48:50;;;;;;;6.53;3.83;;;;;;;10.47;92.45;101663.28;4955532;28;20190;-70
2024/01/26 06:51:18;;;;;;;3.20;3.10;;;;;;;10.48;92.04;101664.97;4955216;28;20190;-70
2024/01/26 06:53:45;;;;;;;3.57;3.57;;;;;;;10.49;92.59;101665.81;4955026;28;20265;-70
2024/01/26 06:56:11;;;;;;;4.00;3.70;;;;;;;10.41;93.29;101650.44;4955376;28;20201;-70
2024/01/26 06:58:37;;;;;;;4.23;3.27;;;;;;;10.30;94.18;101647.81;4955105;28;20563;-70
2024/01/26 07:01:05;;;;;;;4.00;3.60;;;;;;;10.27;93.72;101653.41;4955079;28;20194;-70
2024/01/26 07:03:31;;;;;;;3.80;3.80;;;;;;;10.32;94.23;101645.00;4955328;28;20230;-70
2024/01/26 07:05:58;;;;;;;3.60;3.60;;;;;;;10.30;94.09;101641.63;4957442;28;20194;-70
2024/01/26 07:08:24;;;;;;;3.73;3.43;;;;;;;10.24;93.90;101626.94;4958935;28;20625;-70
2024/01/26 07:10:51;;;;;;;3.13;3.07;;;;;;;10.37;94.31;101638.31;4958892;28;20194;-70
2024/01/26 07:13:17;;;;;;;2.60;2.60;;;;;;;10.34;94.44;101632.38;4958916;28;20285;-70
2024/01/26 07:15:44;;;;;;;3.30;3.20;;;;;;;10.28;94.71;101627.53;4958908;28;20195;-70
2024/01/26 07:18:10;;;;;;;3.70;3.50;;;;;;;10.25;94.82;101612.59;4958806;28;20659;-71
2024/01/26 07:20:37;;;;;;;2.90;2.90;;;;;;;10.18;95.51;101607.91;4958852;28;20237;-70
2024/01/26 07:23:05;;;;;;;6.10;2.90;;;;;;;10.18;95.28;101610.56;4959103;28;20202;-70
2024/01/26 07:25:31;;;;;;;3.30;3.10;;;;;;;10.19;95.13;101612.25;4959334;28;20179;-70
2024/01/26 07:27:58;;;;;;;2.13;2.13;;;;;;;10.18;95.38;101615.91;4958899;28;20210;-70
2024/01/26 07:30:24;;;;;;;3.30;3.20;;;;;;;10.23;95.33;101614.53;4958677;28;20183;-70
2024/01/26 07:32:51;;;;;;;2.87;2.87;;;;;;;10.21;95.18;101607.63;4958520;28;20225;-70
2024/01/26 07:35:17;;;;;;;3.37;3.17;;;;;;;10.23;95.28;101613.69;4958846;28;20223;-70
2024/01/26 07:37:44;;;;;;;3.07;3.03;;;;;;;10.28;94.91;101615.00;4958724;28;20222;-71
2024/01/26 07:40:10;;;;;;;3.20;2.63;;;;;;;10.26;95.26;101608.09;4958726;28;20285;-70
2024/01/26 07:42:37;;;;;;;3.00;3.00;;;;;;;10.22;95.77;101614.69;4958724;28;20205;-70
2024/01/26 07:45:04;;;;;;;2.40;2.30;;;;;;;10.15;96.36;101619.66;4958395;28;20191;-70
2024/01/26 07:47:30;;;;;;;3.27;3.07;;;;;;;10.21;96.53;101615.66;4958272;28;20720;-71
2024/01/26 07:49:57;;;;;;;3.50;3.30;;;;;;;10.23;97.04;101621.69;4958320;28;20282;-71
2024/01/26 07:52:24;;;;;;;3.13;2.70;;;;;;;10.14;97.76;101630.47;4958518;28;20189;-71
2024/01/26 07:54:52;;;;;;;3.57;2.17;;;;;;;10.06;98.54;101623.91;4958109;28;20230;-71
2024/01/26 07:57:19;;;;;;;5.63;3.77;;;;;;;10.16;98.92;101633.88;4958706;28;20557;-73
2024/01/26 07:59:45;;;;;;;2.80;2.80;;;;;;;10.15;99.03;101630.34;4958390;28;20233;-72
2024/01/26 08:02:12;;;;;;;3.20;3.07;;;;;;;10.09;99.37;101625.50;4958092;28;20237;-72
2024/01/26 08:04:39;;;;;;;3.40;3.23;;;;;;;10.04;99.45;101604.50;4958250;28;20194;-72
2024/01/26 08:07:06;;;;;;;4.27;3.90;;;;;;;9.98;99.86;101604.16;4958075;28;20729;-73
2024/01/26 08:09:33;;;;;;;4.80;3.67;;;;;;;9.94;100.00;101610.72;4958499;28;20669;-73
2024/01/26 08:11:59;;;;;;;3.47;3.23;;;;;;;9.81;100.00;101605.53;4958442;28;20191;-73
2024/01/26 08:14:26;;;;;;;4.40;4.20;;;;;;;9.87;100.00;101602.38;4956481;29;20250;-73
2024/01/26 08:16:52;;;;;;;4.53;4.30;;;;;;;9.83;100.00;101603.59;4958263;28;20211;-73
2024/01/26 08:19:19;;;;;;;4.10;4.10;;;;;;;9.92;100.00;101607.34;4958318;28;20246;-73
2024/01/26 08:21:46;;;;;;;3.87;3.87;;;;;;;9.86;100.00;101606.00;4957757;28;20186;-73
2024/01/26 08:24:12;;;;;;;3.97;3.77;;;;;;;9.96;100.00;101606.13;4957517;28;20194;-73
2024/01/26 08:26:39;;;;;;;4.80;4.60;;;;;;;9.94;100.00;101586.69;4957492;28;20191;-74
2024/01/26 08:29:05;;;;;;;4.90;4.70;;;;;;;9.85;100.00;101585.63;4958077;28;20194;-73
2024/01/26 08:31:35;;;;;;;4.47;4.27;;;;;;;9.87;100.00;101582.84;4957539;28;20195;-73
2024/01/26 08:34:01;;;;;;;5.17;4.97;;;;;;;9.86;100.00;101587.31;4957423;28;20237;-73
2024/01/26 08:36:29;;;;;;;4.13;4.13;;;;;;;9.86;100.00;101573.97;4957400;28;20245;-73
2024/01/26 08:38:56;;;;;;;4.97;4.73;;;;;;;9.92;100.00;101576.16;4957415;28;20278;-73
2024/01/26 08:41:23;;;;;;;4.60;4.40;;;;;;;9.96;100.00;101574.91;4957892;28;20558;-73
2024/01/26 08:43:49;;;;;;;5.17;5.17;;;;;;;10.00;100.00;101578.19;4957602;28;20211;-73
2024/01/26 08:46:16;;;;;;;5.83;5.73;;;;;;;10.16;100.00;101580.44;4957308;28;20246;-72
2024/01/26 08:48:43;;;;;;;6.57;5.70;;;;;;;10.19;100.00;101593.53;4957177;28;20210;-73
2024/01/26 08:51:10;;;;;;;6.50;5.97;;;;;;;10.18;100.00;101613.25;4957221;28;20775;-72
2024/01/26 08:53:36;;;;;;;6.80;6.60;;;;;;;10.10;100.00;101612.00;4957086;28;20211;-72
2024/01/26 08:56:05;;;;;;;7.33;6.63;;;;;;;10.10;100.00;101624.50;4956471;29;20194;-72
2024/01/26 08:58:32;;;;;;;7.90;7.60;;;;;;;10.17;100.00;101624.91;4957020;28;20214;-72
2024/01/26 09:00:58;;;;;;;7.83;7.27;;;;;;;10.17;100.00;101614.22;4957109;28;20246;-72
2024/01/26 09:03:26;;;;;;;8.53;8.13;;;;;;;10.24;100.00;101618.06;4957221;28;20193;-72
2024/01/26 09:05:52;;;;;;;9.43;8.50;;;;;;;10.36;100.00;101628.56;4957184;28;20662;-72
2024/01/26 09:08:19;;;;;;;8.73;8.13;;;;;;;10.32;100.00;101628.97;4956828;28;20206;-72
2024/01/26 09:10:46;;;;;;;10.03;8.87;;;;;;;10.39;100.00;101622.16;4955610;29;20241;-72
2024/01/26 09:13:12;;;;;;;9.10;8.70;;;;;;;10.38;100.00;101612.41;4956734;28;20210;-72
2024/01/26 09:15:38;;;;;;;11.60;9.53;;;;;;;10.42;100.00;101621.88;4956735;28;20187;-72
2024/01/26 09:18:05;;;;;;;10.90;9.90;;;;;;;10.43;100.00;101608.41;4956623;28;20768;-72
2024/01/26 09:20:31;;;;;;;11.50;10.60;;;;;;;10.47;100.00;101596.47;4956904;28;20194;-72
2024/01/26 09:22:58;;;;;;;10.13;9.40;;;;;;;10.54;100.00;101599.44;4956500;28;20197;-72
2024/01/26 09:25:25;;;;;;;11.30;10.53;;;;;;;10.59;100.00;101607.94;4956607;28;20183;-72
2024/01/26 09:27:51;;;;;;;11.10;10.03;;;;;;;10.60;100.00;101601.63;4955907;28;20214;-72
2024/01/26 09:30:17;;;;;;;11.07;10.23;;;;;;;10.60;100.00;101598.94;4956486;29;20194;-72
2024/01/26 09:32:44;;;;;;;11.53;10.00;;;;;;;10.65;100.00;101590.53;4956431;28;20689;-72
2024/01/26 09:35:12;;;;;;;12.23;11.13;;;;;;;10.69;100.00;101600.84;4956323;29;20203;-72
2024/01/26 09:37:39;;;;;;;10.43;9.63;;;;;;;10.70;100.00;101590.97;4956357;28;20215;-72
2024/01/26 09:40:06;;;;;;;10.77;9.80;;;;;;;10.82;100.00;101595.28;4956504;28;20258;-72
2024/01/26 09:42:32;;;;;;;12.80;10.03;;;;;;;10.82;100.00;101589.94;4956179;28;20222;-72
2024/01/26 09:45:01;;;;;;;10.10;9.23;;;;;;;10.88;100.00;101590.25;4956466;28;20187;-72
2024/01/26 09:47:28;;;;;;;9.43;8.90;;;;;;;10.92;100.00;101589.00;4956397;28;20215;-72
2024/01/26 09:49:56;;;;;;;10.00;9.23;;;;;;;10.91;100.00;101595.31;4956082;28;20583;-72
2024/01/26 09:52:23;;;;;;;8.97;8.37;;;;;;;10.91;100.00;101597.13;4956337;28;20606;-72
2024/01/26 09:54:52;;;;;;;9.27;8.27;;;;;;;10.95;100.00;101591.41;4955904;28;20678;-72
2024/01/26 09:57:20;;;;;;;9.00;8.60;;;;;;;10.91;100.00;101591.78;4955901;28;20344;-72
2024/01/26 09:59:50;;;;;;;8.03;7.63;;;;;;;10.90;100.00;101588.28;4955942;28;20685;-72
2024/01/26 10:02:17;;;;;;;9.43;8.93;;;;;;;10.87;100.00;101583.19;4955874;28;20194;-72
2024/01/26 10:04:44;;;;;;;11.50;10.57;;;;;;;10.86;100.00;101589.50;4955873;28;20186;-72
2024/01/26 10:07:10;;;;;;;11.10;10.03;;;;;;;10.81;100.00;101583.75;4955752;28;20592;-73
2024/01/26 10:09:37;;;;;;;9.50;9.00;;;;;;;10.88;100.00;101579.53;4956048;29;20648;-73
2024/01/26 10:12:05;;;;;;;10.57;9.83;;;;;;;10.83;100.00;101592.47;4954557;29;20198;-73
2024/01/26 10:14:31;;;;;;;11.03;10.43;;;;;;;10.86;100.00;101589.50;4956185;28;20214;-72
2024/01/26 10:16:59;;;;;;;15.33;13.27;;;;;;;10.91;100.00;101594.47;4955645;28;20641;-72
2024/01/26 10:19:26;;;;;;;12.77;11.67;;;;;;;10.92;100.00;101601.53;4955557;29;20222;-72
2024/01/26 10:21:54;;;;;;;14.10;12.83;;;;;;;10.86;100.00;101602.06;4956127;28;20191;-72
2024/01/26 10:24:23;;;;;;;13.73;11.30;;;;;;;10.89;100.00;101597.28;4955417;28;20288;-72
2024/01/26 10:26:51;;;;;;;11.53;10.47;;;;;;;10.93;100.00;101603.22;4955460;28;20211;-73
2024/01/26 10:29:19;;;;;;;13.30;9.60;;;;;;;10.87;100.00;101609.09;4955504;29;20191;-73
2024/01/26 10:31:46;;;;;;;9.03;8.77;;;;;;;10.88;100.00;101594.75;4955974;28;20203;-73
2024/01/26 10:34:15;;;;;;;9.90;9.30;;;;;;;10.86;100.00;101621.63;4955310;28;20214;-73
2024/01/26 10:36:47;;;;;;;8.33;7.93;;;;;;;10.85;100.00;101644.00;4955284;28;20198;-74
2024/01/26 10:39:28;;;;;;;3.97;3.87;;;;;;;10.70;100.00;101621.22;4955132;28;20242;-73
2024/01/26 10:42:03;;;;;;;2.90;2.70;;;;;;;10.64;99.48;101648.50;4955843;28;20183;-73
2024/01/26 10:44:33;;;;;;;3.40;2.37;;;;;;;10.61;98.83;101640.72;4955862;28;20185;-73
2024/01/26 10:47:00;;;;;;;1.70;1.70;;;;;;;10.62;97.27;101662.97;4953957;28;20281;-73
2024/01/26 10:49:27;;;;;;;2.40;2.30;;;;;;;10.64;97.27;101659.22;4955519;28;20191;-73
2024/01/26 10:51:55;;;;;;;2.23;2.00;;;;;;;10.65;96.25;101657.38;4953985;29;20261;-73
2024/01/26 10:54:24;;;;;;;1.57;1.53;;;;;;;10.58;95.12;101667.72;4955382;28;20225;-72
2024/01/26 10:56:51;;;;;;;2.23;1.70;;;;;;;10.55;95.12;101684.03;4955079;28;20789;-72
2024/01/26 10:59:20;;;;;;;2.17;2.07;;;;;;;10.52;94.68;101703.03;4955118;28;20205;-72
2024/01/26 11:01:46;;;;;;;1.80;1.70;;;;;;;10.42;93.19;101720.78;4955140;28;20190;-72
2024/01/26 11:04:13;;;;;;;2.47;1.73;;;;;;;10.36;92.59;101715.94;4955063;28;20186;-72
2024/01/26 11:06:40;;;;;;;2.67;1.97;;;;;;;10.25;93.16;101732.00;4955036;28;20191;-72
2024/01/26 11:09:08;;;;;;;4.57;1.60;;;;;;;10.15;93.01;101733.69;4955113;28;20697;-72
2024/01/26 11:11:37;;;;;;;1.37;1.20;;;;;;;10.01;91.76;101722.28;4955026;29;20253;-71
2024/01/26 11:14:05;;;;;;;2.80;1.80;;;;;;;9.91;91.89;101741.88;4954945;28;20202;-71
2024/01/26 11:16:34;;;;;;;3.13;1.80;;;;;;;9.81;91.14;101749.75;4955134;28;20242;-72